Time;durP1;ratioP1;P1;durP2;ratioP2;P2;SDS_P1;SDS_P2;PMS_P1;PMS_P2;Temp;Humidity;BMP_temperature;BMP_pressure;BME280_temperature;BME280_humidity;BME280_pressure;Samples;Min_cycle;Max_cycle;Signal;HPM_P1;HPM_P2
2023/03/11 00:02:23;;;;;;;0.80;0.30;;;5.40;99.90;;;;;;4925494;29;20032;-78
2023/03/11 00:04:49;;;;;;;0.70;0.40;;;5.40;99.90;;;;;;4942053;29;20031;-78
2023/03/11 00:07:14;;;;;;;0.50;0.32;;;5.40;99.90;;;;;;4942156;29;20043;-77
2023/03/11 00:09:40;;;;;;;0.73;0.43;;;5.50;99.90;;;;;;4942015;29;20028;-78
2023/03/11 00:12:06;;;;;;;0.63;0.50;;;5.50;99.90;;;;;;4925023;29;20032;-77
2023/03/11 00:14:32;;;;;;;0.60;0.50;;;5.50;99.90;;;;;;4942000;29;20087;-77
2023/03/11 00:16:57;;;;;;;0.80;0.60;;;5.50;99.90;;;;;;4950242;29;20035;-78
2023/03/11 00:19:23;;;;;;;0.52;0.43;;;5.50;99.90;;;;;;4961121;29;20027;-78
2023/03/11 00:21:49;;;;;;;0.68;0.50;;;5.60;99.90;;;;;;4961251;28;20043;-78
2023/03/11 00:24:14;;;;;;;0.60;0.50;;;5.60;99.90;;;;;;4943529;29;20032;-77
2023/03/11 00:26:40;;;;;;;0.82;0.50;;;5.50;99.90;;;;;;4961198;29;20049;-77
2023/03/11 00:29:06;;;;;;;0.55;0.40;;;5.60;99.90;;;;;;4960896;29;20027;-78
2023/03/11 00:31:31;;;;;;;1.17;0.65;;;5.60;99.90;;;;;;4961153;29;20400;-78
2023/03/11 00:33:57;;;;;;;0.75;0.60;;;5.60;99.90;;;;;;4960942;29;20027;-78
2023/03/11 00:36:30;;;;;;;0.88;0.55;;;5.60;99.90;;;;;;4943701;29;20038;-79
2023/03/11 00:38:56;;;;;;;0.70;0.50;;;5.60;99.90;;;;;;4960621;29;20031;-78
2023/03/11 00:41:22;;;;;;;0.98;0.65;;;5.50;99.90;;;;;;4952579;29;20114;-78
2023/03/11 00:43:48;;;;;;;1.00;0.80;;;5.50;99.90;;;;;;4943646;29;20054;-79
2023/03/11 00:46:13;;;;;;;0.88;0.70;;;5.50;99.90;;;;;;4924423;29;20027;-78
2023/03/11 00:48:39;;;;;;;0.57;0.50;;;5.60;99.90;;;;;;4927484;29;20059;-77
2023/03/11 00:51:07;;;;;;;0.77;0.60;;;5.50;99.90;;;;;;4945513;29;20106;-78
2023/03/11 00:53:32;;;;;;;1.85;0.60;;;5.40;99.90;;;;;;4923989;29;20389;-78
2023/03/11 00:56:00;;;;;;;1.45;0.50;;;5.40;99.90;;;;;;4941514;29;20024;-78
2023/03/11 00:58:27;;;;;;;0.88;0.50;;;5.50;99.90;;;;;;4924080;29;20031;-79
2023/03/11 01:00:53;;;;;;;0.70;0.50;;;5.50;99.90;;;;;;4924070;29;20032;-77
2023/03/11 01:03:19;;;;;;;0.90;0.60;;;5.60;99.90;;;;;;4941242;29;20093;-79
2023/03/11 01:05:45;;;;;;;1.30;0.50;;;5.60;99.90;;;;;;4924341;29;20046;-77
2023/03/11 01:08:11;;;;;;;0.52;0.50;;;5.50;99.90;;;;;;4940511;29;20027;-78
2023/03/11 01:10:36;;;;;;;0.88;0.52;;;5.60;99.90;;;;;;4941054;29;20074;-79
2023/03/11 01:13:02;;;;;;;1.30;0.60;;;5.50;99.90;;;;;;4940996;29;20024;-78
2023/03/11 01:15:32;;;;;;;0.55;0.40;;;5.50;99.90;;;;;;4924208;29;20500;-77
2023/03/11 01:17:58;;;;;;;1.60;0.60;;;5.50;99.90;;;;;;4923832;29;20542;-79
2023/03/11 01:20:23;;;;;;;0.75;0.50;;;5.60;99.90;;;;;;4940733;29;20094;-79
2023/03/11 01:22:49;;;;;;;0.90;0.60;;;5.50;99.90;;;;;;4940475;29;20050;-80
2023/03/11 01:25:17;;;;;;;1.02;0.55;;;5.60;99.90;;;;;;4940770;29;20059;-80
2023/03/11 01:27:43;;;;;;;0.50;0.40;;;5.60;99.90;;;;;;4940870;29;20027;-81
2023/03/11 01:30:15;;;;;;;0.70;0.50;;;5.60;99.90;;;;;;4941027;29;20489;-80
2023/03/11 01:32:41;;;;;;;0.52;0.30;;;5.60;99.90;;;;;;4940400;29;20083;-79
2023/03/11 01:35:07;;;;;;;0.70;0.50;;;5.60;99.90;;;;;;4951008;29;20488;-78
2023/03/11 01:37:32;;;;;;;0.50;0.30;;;5.50;99.90;;;;;;4959728;29;20019;-78
2023/03/11 01:39:58;;;;;;;0.57;0.40;;;5.70;99.90;;;;;;4942151;29;20038;-78
2023/03/11 01:42:23;;;;;;;0.60;0.40;;;5.60;99.90;;;;;;4943361;29;20024;-79
2023/03/11 01:44:49;;;;;;;0.47;0.43;;;5.60;99.90;;;;;;4946572;29;20027;-79
2023/03/11 01:47:33;;;;;;;0.70;0.43;;;5.60;99.90;;;;;;4944953;28;20024;-79
2023/03/11 01:50:00;;;;;;;0.70;0.47;;;5.60;99.90;;;;;;4943527;29;20166;-78
2023/03/11 01:52:26;;;;;;;0.60;0.40;;;5.50;99.90;;;;;;4940854;29;20107;-79
2023/03/11 01:54:52;;;;;;;1.02;0.50;;;5.60;99.90;;;;;;4940144;29;20031;-78
2023/03/11 01:57:19;;;;;;;0.80;0.60;;;5.50;99.90;;;;;;4923130;29;20066;-79
2023/03/11 01:59:49;;;;;;;0.40;0.38;;;5.60;99.90;;;;;;4940257;29;20028;-79
2023/03/11 02:02:18;;;;;;;0.68;0.50;;;5.60;99.90;;;;;;4940030;29;20501;-79
2023/03/11 02:04:45;;;;;;;0.55;0.43;;;5.60;99.90;;;;;;4923280;29;20086;-79
2023/03/11 02:07:11;;;;;;;0.85;0.50;;;5.50;99.90;;;;;;4940376;29;20432;-79
2023/03/11 02:09:37;;;;;;;0.60;0.60;;;5.60;99.90;;;;;;4922845;29;20089;-78
2023/03/11 02:12:05;;;;;;;0.73;0.40;;;5.60;99.90;;;;;;4940192;29;20031;-78
2023/03/11 02:14:31;;;;;;;0.68;0.50;;;5.50;99.90;;;;;;4922871;29;20056;-79
2023/03/11 02:16:58;;;;;;;0.93;0.68;;;5.60;99.90;;;;;;4923176;29;20050;-79
2023/03/11 02:19:39;;;;;;;0.52;0.40;;;5.50;99.90;;;;;;4939437;29;20035;-79
2023/03/11 02:22:05;;;;;;;0.80;0.50;;;5.60;99.90;;;;;;4939838;29;20044;-79
2023/03/11 02:24:49;;;;;;;0.52;0.40;;;5.60;99.90;;;;;;4939578;29;20043;-79
2023/03/11 02:27:17;;;;;;;;;;;5.60;99.90;;;;;;4923226;29;20502;-79
2023/03/11 02:29:46;;;;;;;0.40;0.40;;;5.60;99.90;;;;;;4922948;29;19907;-79
2023/03/11 02:32:12;;;;;;;0.40;0.40;;;5.70;99.90;;;;;;4922785;29;20095;-79
2023/03/11 02:34:39;;;;;;;1.00;0.50;;;5.60;99.90;;;;;;4939708;29;20059;-79
2023/03/11 02:37:07;;;;;;;0.50;0.35;;;5.60;99.90;;;;;;4922793;29;20096;-79
2023/03/11 02:39:41;;;;;;;0.47;0.38;;;5.60;99.90;;;;;;4946046;29;20019;-78
2023/03/11 02:42:25;;;;;;;1.00;0.60;;;5.60;99.90;;;;;;4945020;29;20032;-79
2023/03/11 02:45:10;;;;;;;0.80;0.40;;;5.60;99.90;;;;;;4946039;29;20019;-79
2023/03/11 02:47:39;;;;;;;0.47;0.40;;;5.70;99.90;;;;;;4943007;29;20059;-80
2023/03/11 02:50:06;;;;;;;0.60;0.50;;;5.60;99.90;;;;;;4943996;29;20027;-79
2023/03/11 02:52:34;;;;;;;0.70;0.50;;;5.60;99.90;;;;;;4939965;29;20035;-78
2023/03/11 02:55:00;;;;;;;0.88;0.50;;;5.70;99.90;;;;;;4952160;29;20388;-79
2023/03/11 02:57:26;;;;;;;0.50;0.40;;;5.60;99.90;;;;;;4941694;29;20031;-80
2023/03/11 02:59:51;;;;;;;0.40;0.30;;;5.60;99.90;;;;;;4941925;29;20079;-78
2023/03/11 03:02:17;;;;;;;0.55;0.50;;;5.60;99.90;;;;;;4941541;29;20055;-78
2023/03/11 03:04:43;;;;;;;0.50;0.40;;;5.60;99.90;;;;;;4958887;29;20049;-79
2023/03/11 03:07:09;;;;;;;0.80;0.45;;;5.70;99.90;;;;;;4958729;29;20027;-79
2023/03/11 03:09:35;;;;;;;0.75;0.65;;;5.60;99.90;;;;;;4958489;29;20031;-78
2023/03/11 03:12:02;;;;;;;0.65;0.57;;;5.60;99.90;;;;;;4958569;29;20491;-79
2023/03/11 03:14:28;;;;;;;1.23;0.60;;;5.60;99.90;;;;;;4958670;29;20030;-79
2023/03/11 03:16:54;;;;;;;0.70;0.60;;;5.70;99.90;;;;;;4958827;29;20396;-79
2023/03/11 03:19:19;;;;;;;0.90;0.52;;;5.60;99.90;;;;;;4941375;29;20384;-79
2023/03/11 03:21:45;;;;;;;0.60;0.40;;;5.60;99.90;;;;;;4958593;28;20054;-79
2023/03/11 03:24:11;;;;;;;0.75;0.60;;;5.70;99.90;;;;;;4958302;29;20098;-79
2023/03/11 03:26:37;;;;;;;0.70;0.50;;;5.70;99.90;;;;;;4958668;29;20020;-78
2023/03/11 03:29:04;;;;;;;1.10;0.57;;;5.60;99.90;;;;;;4958454;29;20032;-79
2023/03/11 03:31:30;;;;;;;0.90;0.60;;;5.60;99.90;;;;;;4923950;29;20031;-78
2023/03/11 03:33:56;;;;;;;1.23;0.70;;;5.60;99.90;;;;;;4942821;29;20031;-79
2023/03/11 03:36:22;;;;;;;0.70;0.52;;;5.60;99.90;;;;;;4926016;29;20032;-78
2023/03/11 03:38:47;;;;;;;0.85;0.60;;;5.60;99.90;;;;;;4943037;29;20392;-79
2023/03/11 03:41:17;;;;;;;0.77;0.50;;;5.50;99.90;;;;;;4955222;29;20036;-78
2023/03/11 03:43:42;;;;;;;0.52;0.45;;;5.40;99.90;;;;;;4942453;29;20034;-79
2023/03/11 03:46:08;;;;;;;0.93;0.55;;;5.50;99.90;;;;;;4959057;29;20392;-78
2023/03/11 03:48:34;;;;;;;0.55;0.40;;;5.50;99.90;;;;;;4958064;29;20497;-80
2023/03/11 03:51:08;;;;;;;0.95;0.47;;;5.50;99.90;;;;;;4937578;29;20418;-79
2023/03/11 03:53:35;;;;;;;1.58;0.68;;;5.60;99.90;;;;;;4942088;29;20107;-78
2023/03/11 03:56:06;;;;;;;1.23;0.60;;;5.60;99.90;;;;;;4925666;29;20114;-79
2023/03/11 03:58:32;;;;;;;1.02;0.50;;;5.60;99.90;;;;;;4924976;29;20038;-78
2023/03/11 04:00:58;;;;;;;0.60;0.50;;;5.60;99.90;;;;;;4925413;29;20427;-78
2023/03/11 04:03:25;;;;;;;0.70;0.57;;;5.70;99.90;;;;;;4942223;29;20028;-78
2023/03/11 04:05:51;;;;;;;1.70;0.50;;;5.60;99.90;;;;;;4942459;29;20034;-79
2023/03/11 04:08:17;;;;;;;0.60;0.50;;;5.60;99.90;;;;;;4941851;29;20508;-78
2023/03/11 04:10:43;;;;;;;0.57;0.45;;;5.60;99.90;;;;;;4924884;29;20031;-78
2023/03/11 04:13:09;;;;;;;0.80;0.50;;;5.60;99.90;;;;;;4942001;29;20059;-78
2023/03/11 04:15:37;;;;;;;1.30;0.65;;;5.60;99.90;;;;;;4942328;29;20433;-79
2023/03/11 04:18:03;;;;;;;1.05;0.60;;;5.60;99.90;;;;;;4942118;29;20469;-79
2023/03/11 04:20:28;;;;;;;0.75;0.57;;;5.50;99.90;;;;;;4942067;29;20063;-78
2023/03/11 04:22:54;;;;;;;0.88;0.57;;;5.50;99.90;;;;;;4924540;29;20039;-78
2023/03/11 04:25:20;;;;;;;0.75;0.52;;;5.50;99.90;;;;;;4942002;29;20031;-78
2023/03/11 04:27:48;;;;;;;1.15;0.55;;;5.50;99.90;;;;;;4941786;29;20019;-80
2023/03/11 04:30:14;;;;;;;0.52;0.40;;;5.50;99.90;;;;;;4925031;29;20024;-79
2023/03/11 04:32:40;;;;;;;0.70;0.52;;;5.50;99.90;;;;;;4941708;29;20035;-79
2023/03/11 04:35:06;;;;;;;0.60;0.35;;;5.60;99.90;;;;;;4941794;29;20122;-78
2023/03/11 04:37:32;;;;;;;0.60;0.52;;;5.50;99.90;;;;;;4941721;29;20055;-79
2023/03/11 04:39:58;;;;;;;0.60;0.50;;;5.50;99.90;;;;;;4924581;29;20034;-79
2023/03/11 04:42:23;;;;;;;0.55;0.50;;;5.50;99.90;;;;;;4923956;29;20032;-79
2023/03/11 04:44:49;;;;;;;0.95;0.50;;;5.60;99.90;;;;;;4941332;29;20571;-78
2023/03/11 04:47:15;;;;;;;0.57;0.38;;;5.60;99.90;;;;;;4941409;29;20023;-79
2023/03/11 04:49:41;;;;;;;0.40;0.38;;;5.60;99.90;;;;;;4908241;29;20110;-78
2023/03/11 04:52:06;;;;;;;0.40;0.40;;;5.50;99.90;;;;;;4908625;29;20078;-78
2023/03/11 04:54:32;;;;;;;0.60;0.40;;;5.60;99.90;;;;;;4922175;29;20469;-78
2023/03/11 04:56:58;;;;;;;0.50;0.40;;;5.60;99.90;;;;;;4922382;29;20040;-78
2023/03/11 04:59:24;;;;;;;0.52;0.40;;;5.60;99.90;;;;;;4905623;29;20032;-78
2023/03/11 05:01:49;;;;;;;0.60;0.50;;;5.50;99.90;;;;;;4922113;29;20036;-79
2023/03/11 05:04:15;;;;;;;0.60;0.50;;;5.50;99.90;;;;;;4905439;29;20443;-78
2023/03/11 05:06:41;;;;;;;0.47;0.40;;;5.60;99.90;;;;;;4905168;29;20070;-78
2023/03/11 05:09:06;;;;;;;0.70;0.50;;;5.50;99.90;;;;;;4922494;29;20056;-79
2023/03/11 05:11:32;;;;;;;0.85;0.50;;;5.50;99.90;;;;;;4921883;29;20028;-78
2023/03/11 05:13:58;;;;;;;1.08;0.80;;;5.50;99.90;;;;;;4922205;29;20028;-78
2023/03/11 05:16:23;;;;;;;0.63;0.40;;;5.50;99.90;;;;;;4921965;29;20054;-78
2023/03/11 05:18:49;;;;;;;0.95;0.40;;;5.50;99.90;;;;;;4922112;29;20053;-78
2023/03/11 05:21:15;;;;;;;0.40;0.30;;;5.50;99.90;;;;;;4927672;29;20126;-78
2023/03/11 05:23:41;;;;;;;0.80;0.40;;;5.50;99.90;;;;;;4923657;29;20020;-78
2023/03/11 05:26:07;;;;;;;0.68;0.50;;;5.60;99.90;;;;;;4940737;29;20035;-78
2023/03/11 05:28:32;;;;;;;0.50;0.35;;;5.50;99.90;;;;;;4940875;29;20028;-79
2023/03/11 05:30:58;;;;;;;0.43;0.40;;;5.50;99.90;;;;;;4923787;29;20038;-78
2023/03/11 05:33:24;;;;;;;0.55;0.40;;;5.50;99.90;;;;;;4940802;29;20028;-79
2023/03/11 05:35:50;;;;;;;0.40;0.30;;;5.50;99.90;;;;;;4940585;29;20427;-79
2023/03/11 05:38:16;;;;;;;0.60;0.40;;;5.50;99.90;;;;;;4923642;29;20472;-79
2023/03/11 05:40:42;;;;;;;0.40;0.30;;;5.60;99.90;;;;;;4953161;29;20062;-78
2023/03/11 05:43:08;;;;;;;0.50;0.40;;;5.50;99.90;;;;;;4940616;29;20028;-78
2023/03/11 05:45:33;;;;;;;0.60;0.40;;;5.50;99.90;;;;;;4949892;29;20081;-77
2023/03/11 05:47:59;;;;;;;0.32;0.30;;;5.50;99.90;;;;;;4943569;29;20047;-78
2023/03/11 05:50:25;;;;;;;0.73;0.50;;;5.50;99.90;;;;;;4927715;29;20032;-78
2023/03/11 05:52:51;;;;;;;1.10;0.50;;;5.60;99.90;;;;;;4940170;29;20026;-78
2023/03/11 05:55:17;;;;;;;0.35;0.35;;;5.50;99.90;;;;;;4939570;29;20048;-80
2023/03/11 05:57:42;;;;;;;0.70;0.55;;;5.50;99.90;;;;;;4940319;29;20091;-79
2023/03/11 06:00:10;;;;;;;0.47;0.35;;;5.50;99.90;;;;;;4940222;29;20366;-78
2023/03/11 06:02:38;;;;;;;0.68;0.47;;;5.50;99.90;;;;;;4939897;29;20026;-79
2023/03/11 06:05:05;;;;;;;0.45;0.30;;;5.50;99.90;;;;;;4939650;29;20030;-79
2023/03/11 06:07:32;;;;;;;1.25;0.60;;;5.50;99.90;;;;;;4940463;29;20504;-79
2023/03/11 06:09:58;;;;;;;0.77;0.52;;;5.60;99.90;;;;;;4952989;29;20034;-78
2023/03/11 06:12:23;;;;;;;0.80;0.50;;;5.50;99.90;;;;;;4938064;29;20039;-78
2023/03/11 06:14:49;;;;;;;0.50;0.40;;;5.50;99.90;;;;;;4940081;29;20463;-79
2023/03/11 06:17:15;;;;;;;0.88;0.70;;;5.50;99.90;;;;;;4940194;29;20576;-78
2023/03/11 06:19:40;;;;;;;0.65;0.47;;;5.60;99.90;;;;;;4922625;29;20458;-78
2023/03/11 06:22:06;;;;;;;0.70;0.40;;;5.50;99.90;;;;;;4939794;29;20473;-79
2023/03/11 06:24:32;;;;;;;0.68;0.57;;;5.50;99.90;;;;;;4939729;29;20079;-79
2023/03/11 06:26:58;;;;;;;0.60;0.43;;;5.50;99.90;;;;;;4940135;29;20023;-80
2023/03/11 06:29:25;;;;;;;0.75;0.60;;;5.60;99.90;;;;;;4922823;29;20024;-79
2023/03/11 06:31:51;;;;;;;0.60;0.50;;;5.50;99.90;;;;;;4922862;29;20079;-79
2023/03/11 06:34:17;;;;;;;0.60;0.50;;;5.60;99.90;;;;;;4939925;29;20019;-79
2023/03/11 06:36:42;;;;;;;0.80;0.77;;;5.50;99.90;;;;;;4923109;29;20038;-79
2023/03/11 06:39:12;;;;;;;0.80;0.70;;;5.60;99.90;;;;;;4939447;29;20147;-80
2023/03/11 06:41:38;;;;;;;0.70;0.70;;;5.60;99.90;;;;;;4922897;29;20091;-78
2023/03/11 06:44:04;;;;;;;1.05;0.73;;;5.60;99.90;;;;;;4939819;29;20020;-78
2023/03/11 06:46:29;;;;;;;0.80;0.70;;;5.60;99.90;;;;;;4939880;29;20032;-79
2023/03/11 06:48:56;;;;;;;1.30;0.63;;;5.60;99.90;;;;;;4911394;29;20051;-78
2023/03/11 06:51:22;;;;;;;0.57;0.50;;;5.50;99.90;;;;;;4920820;29;20405;-79
2023/03/11 06:53:50;;;;;;;1.00;0.70;;;5.60;99.90;;;;;;4920544;29;20028;-78
2023/03/11 06:56:16;;;;;;;1.20;0.90;;;5.50;99.90;;;;;;4920711;29;20035;-80
2023/03/11 06:58:42;;;;;;;0.80;0.70;;;5.60;99.90;;;;;;4920531;29;20028;-79
2023/03/11 07:01:15;;;;;;;0.80;0.60;;;5.60;99.90;;;;;;4920619;29;20084;-78
2023/03/11 07:03:41;;;;;;;1.00;0.80;;;5.50;99.90;;;;;;4920646;29;20489;-79
2023/03/11 07:06:12;;;;;;;0.80;0.40;;;5.60;99.90;;;;;;4921539;29;20039;-79
2023/03/11 07:08:38;;;;;;;0.60;0.45;;;5.60;99.90;;;;;;4907448;29;20449;-79
2023/03/11 07:11:07;;;;;;;0.63;0.50;;;5.60;99.90;;;;;;4924253;29;20075;-79
2023/03/11 07:13:33;;;;;;;0.70;0.57;;;5.60;99.90;;;;;;4907487;29;20032;-79
2023/03/11 07:16:01;;;;;;;0.63;0.60;;;5.70;99.90;;;;;;4906934;29;20024;-79
2023/03/11 07:18:28;;;;;;;0.73;0.60;;;5.80;99.90;;;;;;4907090;29;20481;-79
2023/03/11 07:20:53;;;;;;;0.85;0.60;;;5.70;99.90;;;;;;4927583;29;20054;-79
2023/03/11 07:23:19;;;;;;;0.93;0.60;;;5.70;99.90;;;;;;4943013;29;20020;-79
2023/03/11 07:25:46;;;;;;;0.90;0.70;;;5.80;99.90;;;;;;4942894;29;20547;-79
2023/03/11 07:28:12;;;;;;;1.17;0.70;;;5.80;99.90;;;;;;4926074;29;20024;-78
2023/03/11 07:30:38;;;;;;;1.58;0.73;;;5.70;99.90;;;;;;4943051;29;20030;-78
2023/03/11 07:33:04;;;;;;;0.85;0.63;;;5.80;99.90;;;;;;4942885;29;20023;-79
2023/03/11 07:35:30;;;;;;;0.60;0.50;;;5.80;99.90;;;;;;4942956;29;20039;-79
2023/03/11 07:37:56;;;;;;;0.50;0.40;;;5.70;99.90;;;;;;4942749;29;20028;-79
2023/03/11 07:40:22;;;;;;;0.90;0.70;;;5.80;99.90;;;;;;4949523;29;20028;-78
2023/03/11 07:42:48;;;;;;;0.60;0.50;;;5.80;99.90;;;;;;4953939;29;20031;-79
2023/03/11 07:45:14;;;;;;;0.70;0.60;;;5.80;99.90;;;;;;4961942;29;20060;-79
2023/03/11 07:47:45;;;;;;;0.95;0.68;;;5.80;99.90;;;;;;4958464;29;20020;-79
2023/03/11 07:50:10;;;;;;;2.42;0.90;;;5.80;99.90;;;;;;4961789;29;20031;-78
2023/03/11 07:52:36;;;;;;;1.38;0.80;;;5.80;99.90;;;;;;4944855;29;20037;-79
2023/03/11 07:55:02;;;;;;;0.77;0.70;;;5.90;99.90;;;;;;4944510;29;20472;-78
2023/03/11 07:57:28;;;;;;;1.25;0.70;;;5.90;99.90;;;;;;4961923;29;20027;-79
2023/03/11 07:59:54;;;;;;;0.88;0.70;;;5.90;99.90;;;;;;4961594;29;20059;-78
2023/03/11 08:02:19;;;;;;;1.08;0.75;;;6.00;99.90;;;;;;4961709;29;20567;-79
2023/03/11 08:04:45;;;;;;;0.90;0.60;;;6.00;99.90;;;;;;4944426;29;20046;-79
2023/03/11 08:07:11;;;;;;;0.90;0.68;;;6.00;99.90;;;;;;4961608;29;20024;-79
2023/03/11 08:09:36;;;;;;;0.80;0.60;;;6.00;99.90;;;;;;4961116;29;20023;-79
2023/03/11 08:12:02;;;;;;;1.17;0.68;;;6.00;99.90;;;;;;4961537;29;20558;-80
2023/03/11 08:14:28;;;;;;;0.50;0.50;;;6.00;99.90;;;;;;4944036;29;20027;-79
2023/03/11 08:16:54;;;;;;;0.60;0.50;;;6.10;99.90;;;;;;4943961;28;20480;-79
2023/03/11 08:19:19;;;;;;;0.75;0.50;;;6.10;99.90;;;;;;4957715;29;20035;-79
2023/03/11 08:21:45;;;;;;;0.40;0.40;;;6.10;99.90;;;;;;4949549;29;20074;-79
2023/03/11 08:24:12;;;;;;;0.60;0.50;;;6.20;99.90;;;;;;4950825;29;20481;-79
2023/03/11 08:26:39;;;;;;;0.93;0.60;;;6.30;99.90;;;;;;4950134;29;20019;-79
2023/03/11 08:29:05;;;;;;;0.50;0.50;;;6.20;99.90;;;;;;4949454;29;20066;-79
2023/03/11 08:31:33;;;;;;;1.05;0.60;;;6.20;99.90;;;;;;4949628;29;20110;-79
2023/03/11 08:34:05;;;;;;;0.52;0.50;;;6.30;99.90;;;;;;4935284;29;20067;-78
2023/03/11 08:36:31;;;;;;;0.43;0.40;;;6.30;99.90;;;;;;4949234;29;20027;-80
2023/03/11 08:38:58;;;;;;;0.60;0.50;;;6.40;99.90;;;;;;4959854;29;20035;-80
2023/03/11 08:41:24;;;;;;;0.80;0.50;;;6.30;99.90;;;;;;4952684;29;20027;-79
2023/03/11 08:43:51;;;;;;;0.70;0.50;;;6.40;99.90;;;;;;4952028;29;20024;-79
2023/03/11 08:46:28;;;;;;;0.43;0.40;;;6.40;99.90;;;;;;4934625;29;20029;-79
2023/03/11 08:48:55;;;;;;;0.93;0.68;;;6.50;99.90;;;;;;4950020;29;20023;-79
2023/03/11 08:51:22;;;;;;;1.27;0.57;;;6.60;99.90;;;;;;4933113;29;20027;-79
2023/03/11 08:53:49;;;;;;;0.80;0.63;;;6.60;99.90;;;;;;4929003;29;20031;-80
2023/03/11 08:56:15;;;;;;;0.80;0.60;;;6.60;99.90;;;;;;4927704;29;21544;-79
2023/03/11 08:58:40;;;;;;;0.90;0.63;;;6.70;99.90;;;;;;4946972;29;20027;-79
2023/03/11 09:01:08;;;;;;;0.82;0.50;;;6.80;99.90;;;;;;4943780;29;20028;-79
2023/03/11 09:03:35;;;;;;;0.75;0.50;;;6.80;99.90;;;;;;4950875;29;20019;-79
2023/03/11 09:06:02;;;;;;;1.08;0.60;;;6.80;99.90;;;;;;4931128;29;20075;-78
2023/03/11 09:08:28;;;;;;;0.70;0.47;;;6.80;99.90;;;;;;4949632;29;20034;-79
2023/03/11 09:10:54;;;;;;;0.70;0.50;;;6.80;99.90;;;;;;4948570;29;20099;-79
2023/03/11 09:13:20;;;;;;;0.40;0.40;;;6.90;99.90;;;;;;4950398;29;20468;-79
2023/03/11 09:15:48;;;;;;;0.55;0.40;;;7.00;99.90;;;;;;4932218;29;20110;-78
2023/03/11 09:18:15;;;;;;;0.70;0.50;;;7.00;99.90;;;;;;4950023;29;20087;-80
2023/03/11 09:20:41;;;;;;;0.50;0.40;;;7.00;99.90;;;;;;4952440;29;20020;-80
2023/03/11 09:23:08;;;;;;;1.40;0.60;;;7.10;99.90;;;;;;4951685;29;20039;-78
2023/03/11 09:25:33;;;;;;;0.60;0.38;;;7.10;99.90;;;;;;4947928;29;20019;-79
2023/03/11 09:27:59;;;;;;;0.77;0.50;;;7.20;99.90;;;;;;4949197;29;20459;-79
2023/03/11 09:30:25;;;;;;;0.85;0.40;;;7.30;99.90;;;;;;4935775;29;20459;-79
2023/03/11 09:32:50;;;;;;;0.55;0.40;;;7.30;99.90;;;;;;4944957;29;20132;-77
2023/03/11 09:35:16;;;;;;;0.50;0.45;;;7.40;99.90;;;;;;4948151;29;20031;-77
2023/03/11 09:37:42;;;;;;;0.60;0.43;;;7.30;99.90;;;;;;4949699;29;20024;-78
2023/03/11 09:40:11;;;;;;;0.80;0.50;;;7.30;99.90;;;;;;4930711;29;20047;-78
2023/03/11 09:42:53;;;;;;;0.65;0.40;;;7.40;99.90;;;;;;4931893;29;20045;-77
2023/03/11 09:45:23;;;;;;;0.70;0.52;;;7.50;99.90;;;;;;4923437;29;20035;-78
2023/03/11 09:48:17;;;;;;;0.57;0.35;;;7.60;99.90;;;;;;4943353;29;20016;-77
2023/03/11 09:51:12;;;;;;;0.90;0.45;;;7.50;99.90;;;;;;4940284;29;20480;-78
2023/03/11 09:53:41;;;;;;;0.95;0.50;;;7.50;99.90;;;;;;4917625;29;20050;-76
2023/03/11 09:56:16;;;;;;;0.68;0.50;;;7.60;99.90;;;;;;4958746;29;20028;-79
2023/03/11 09:58:51;;;;;;;1.02;0.60;;;7.60;99.90;;;;;;4953848;29;20058;-77
2023/03/11 10:01:23;;;;;;;0.68;0.50;;;7.60;99.90;;;;;;4958047;29;20145;-78
2023/03/11 10:03:52;;;;;;;0.90;0.50;;;7.70;99.90;;;;;;4945931;29;20033;-78
2023/03/11 10:06:24;;;;;;;0.80;0.60;;;7.70;99.90;;;;;;4959158;29;20015;-79
2023/03/11 10:09:35;;;;;;;0.65;0.50;;;7.80;99.90;;;;;;4941871;29;20090;-78
2023/03/11 10:12:39;;;;;;;0.43;0.38;;;7.90;99.90;;;;;;4959309;29;20512;-78
2023/03/11 10:15:36;;;;;;;0.52;0.50;;;7.90;99.90;;;;;;4953638;29;20055;-79
2023/03/11 10:18:08;;;;;;;0.40;0.40;;;7.90;99.90;;;;;;4939549;29;20484;-78
2023/03/11 10:20:45;;;;;;;1.20;0.35;;;8.00;99.90;;;;;;4923052;29;20039;-78
2023/03/11 10:23:29;;;;;;;0.50;0.40;;;8.00;99.90;;;;;;4922303;29;20032;-78
2023/03/11 10:26:19;;;;;;;0.28;0.28;;;8.00;99.90;;;;;;4922405;29;20032;-77
2023/03/11 10:28:53;;;;;;;0.50;0.45;;;8.20;99.90;;;;;;4922941;29;20090;-78
2023/03/11 10:31:36;;;;;;;0.68;0.60;;;8.20;99.90;;;;;;4942219;29;20071;-78
2023/03/11 10:34:25;;;;;;;0.75;0.55;;;8.30;99.90;;;;;;4944615;29;20458;-79
2023/03/11 10:37:00;;;;;;;0.60;0.50;;;8.40;99.90;;;;;;4939051;29;20517;-80
2023/03/11 10:39:26;;;;;;;0.40;0.38;;;8.60;99.90;;;;;;4927664;29;20087;-78
2023/03/11 10:41:56;;;;;;;0.70;0.50;;;8.60;99.90;;;;;;4948738;28;20587;-78
2023/03/11 10:44:28;;;;;;;0.93;0.60;;;8.70;99.90;;;;;;4943181;29;20023;-78
2023/03/11 10:46:53;;;;;;;0.82;0.52;;;8.70;99.90;;;;;;4943480;29;20024;-77
2023/03/11 10:49:19;;;;;;;0.60;0.40;;;8.80;99.90;;;;;;4946556;29;20032;-79
2023/03/11 10:51:50;;;;;;;1.10;0.47;;;8.80;99.90;;;;;;4943424;29;20097;-79
2023/03/11 10:54:22;;;;;;;0.65;0.50;;;8.90;99.90;;;;;;4943346;29;20036;-78
2023/03/11 10:56:54;;;;;;;0.93;0.50;;;9.00;99.90;;;;;;4926125;29;20031;-78
2023/03/11 10:59:25;;;;;;;0.70;0.43;;;9.00;99.90;;;;;;4949288;29;20028;-78
2023/03/11 11:01:56;;;;;;;0.77;0.50;;;9.10;99.90;;;;;;4942829;29;20031;-78
2023/03/11 11:04:38;;;;;;;1.40;0.95;;;9.10;99.90;;;;;;4926029;29;20027;-78
2023/03/11 11:07:30;;;;;;;1.35;0.70;;;9.20;99.90;;;;;;4952573;29;20024;-78
2023/03/11 11:10:13;;;;;;;0.75;0.57;;;9.30;99.90;;;;;;4925708;29;20024;-79
2023/03/11 11:12:50;;;;;;;0.97;0.70;;;9.40;99.90;;;;;;4925865;29;20039;-77
2023/03/11 11:15:24;;;;;;;0.90;0.50;;;9.40;99.90;;;;;;4942565;29;20034;-78
2023/03/11 11:17:51;;;;;;;;;;;9.40;99.90;;;;;;4943031;29;20425;-84
2023/03/11 11:20:18;;;;;;;0.80;0.47;;;9.60;99.90;;;;;;4926051;29;19913;-78
2023/03/11 11:23:00;;;;;;;0.75;0.60;;;9.60;99.90;;;;;;4924969;29;20044;-77
2023/03/11 11:25:30;;;;;;;0.80;0.60;;;9.60;99.90;;;;;;4942903;29;20028;-77
2023/03/11 11:28:02;;;;;;;0.80;0.50;;;9.70;99.90;;;;;;4942520;29;20023;-77
2023/03/11 11:30:28;;;;;;;1.27;1.17;;;9.70;99.90;;;;;;4925921;29;20172;-78
2023/03/11 11:32:54;;;;;;;1.33;0.85;;;9.70;99.90;;;;;;4925900;29;20087;-77
2023/03/11 11:35:22;;;;;;;0.90;0.60;;;9.80;99.90;;;;;;4942919;29;20484;-78
2023/03/11 11:37:58;;;;;;;3.65;2.08;;;9.80;99.90;;;;;;4925545;29;20031;-78
2023/03/11 11:40:30;;;;;;;1.05;0.70;;;9.90;99.90;;;;;;4957190;29;20107;-78
2023/03/11 11:43:12;;;;;;;1.80;1.00;;;10.10;99.90;;;;;;4925743;29;20464;-76
2023/03/11 11:45:48;;;;;;;1.48;0.85;;;10.20;99.90;;;;;;4942581;29;20050;-76
2023/03/11 11:48:25;;;;;;;0.90;0.60;;;10.20;99.90;;;;;;4945624;29;20024;-78
2023/03/11 11:50:54;;;;;;;0.80;0.70;;;10.20;99.90;;;;;;4942425;29;20027;-77
2023/03/11 11:53:37;;;;;;;1.48;0.70;;;10.10;99.90;;;;;;4925196;29;20090;-77
2023/03/11 11:56:03;;;;;;;1.67;0.95;;;10.10;99.90;;;;;;4942597;29;20484;-77
2023/03/11 11:58:30;;;;;;;0.80;0.60;;;10.10;99.90;;;;;;4925497;29;20027;-76
2023/03/11 12:01:18;;;;;;;1.30;0.90;;;10.10;99.90;;;;;;4942209;29;20036;-77
2023/03/11 12:04:11;;;;;;;1.33;0.75;;;10.20;99.90;;;;;;4925352;29;20020;-77
2023/03/11 12:06:49;;;;;;;1.33;0.60;;;10.40;99.90;;;;;;4942367;29;20055;-77
2023/03/11 12:09:46;;;;;;;1.40;0.65;;;10.40;99.90;;;;;;4942355;29;20039;-76
2023/03/11 12:12:46;;;;;;;1.40;0.80;;;10.40;99.90;;;;;;4925287;29;20034;-77
2023/03/11 12:15:36;;;;;;;0.90;0.52;;;10.40;99.90;;;;;;4925489;29;20039;-76
2023/03/11 12:18:08;;;;;;;0.90;0.60;;;10.40;99.90;;;;;;4942066;29;20036;-77
2023/03/11 12:20:40;;;;;;;1.15;0.55;;;10.40;99.90;;;;;;4942153;29;20028;-76
2023/03/11 12:23:21;;;;;;;1.00;0.65;;;10.40;99.90;;;;;;4941729;29;20078;-77
2023/03/11 12:26:04;;;;;;;0.93;0.47;;;10.50;99.90;;;;;;4924611;29;20034;-76
2023/03/11 12:28:51;;;;;;;0.77;0.63;;;10.50;99.90;;;;;;4942130;29;20040;-76
2023/03/11 12:31:18;;;;;;;1.25;0.52;;;10.40;99.90;;;;;;4924767;29;20035;-77
2023/03/11 12:34:10;;;;;;;0.82;0.55;;;10.40;99.90;;;;;;4942017;29;20503;-77
2023/03/11 12:36:47;;;;;;;0.60;0.60;;;10.50;99.90;;;;;;4920209;29;20043;-78
2023/03/11 12:39:23;;;;;;;1.13;0.65;;;10.50;99.90;;;;;;4940811;29;20495;-73
2023/03/11 12:42:09;;;;;;;1.00;0.80;;;10.60;99.90;;;;;;4949151;29;20385;-77
2023/03/11 12:44:35;;;;;;;0.80;0.60;;;10.60;99.90;;;;;;4924518;29;20032;-76
2023/03/11 12:47:03;;;;;;;1.30;0.70;;;10.60;99.90;;;;;;4941520;29;20019;-76
2023/03/11 12:49:33;;;;;;;1.88;1.30;;;10.70;99.90;;;;;;4944579;29;20035;-76
2023/03/11 12:52:14;;;;;;;2.58;1.50;;;10.80;99.90;;;;;;4941339;29;20027;-76
2023/03/11 12:54:45;;;;;;;2.30;1.42;;;10.80;99.90;;;;;;4948937;29;20037;-76
2023/03/11 12:57:17;;;;;;;1.45;1.05;;;10.90;99.90;;;;;;4960484;29;20027;-76
2023/03/11 12:59:49;;;;;;;1.40;1.08;;;11.00;99.90;;;;;;4943354;29;20065;-76
2023/03/11 13:02:40;;;;;;;2.17;1.50;;;11.20;99.90;;;;;;4960349;29;20078;-76
2023/03/11 13:05:25;;;;;;;1.95;1.30;;;11.30;99.90;;;;;;4959792;28;20031;-76
2023/03/11 13:07:52;;;;;;;2.42;1.38;;;11.30;99.90;;;;;;4942894;29;20034;-75